Time;durP1;ratioP1;P1;durP2;ratioP2;P2;SDS_P1;SDS_P2;PMS_P1;PMS_P2;Temp;Humidity;BMP_temperature;BMP_pressure;BME280_temperature;BME280_humidity;BME280_pressure;Samples;Min_cycle;Max_cycle;Signal;HPM_P1;HPM_P2
2022/03/03 00:00:20;;;;;;;199.88;48.65;;;1.70;99.90;;;0.19;100.00;101919.31;4976261;28;20079;-76
2022/03/03 00:02:46;;;;;;;199.68;50.60;;;1.70;99.90;;;0.29;100.00;101924.63;5026676;28;20028;-75
2022/03/03 00:05:13;;;;;;;218.35;50.08;;;1.80;99.90;;;0.35;100.00;101924.72;5009978;28;20032;-76
2022/03/03 00:07:40;;;;;;;251.60;51.08;;;1.80;99.90;;;0.38;100.00;101904.88;4987605;28;20053;-77
2022/03/03 00:10:10;;;;;;;242.50;50.72;;;1.90;99.90;;;0.46;100.00;101915.38;4947724;28;20602;-77
2022/03/03 00:12:37;;;;;;;208.10;51.05;;;1.90;99.90;;;0.51;100.00;101913.69;4962970;28;20021;-78
2022/03/03 00:15:04;;;;;;;228.02;49.67;;;;;;;0.56;100.00;101914.66;4931353;28;20031;-79
2022/03/03 00:17:31;;;;;;;214.23;47.78;;;2.00;99.90;;;0.59;100.00;101908.63;5016386;28;20048;-75
2022/03/03 00:20:02;;;;;;;262.95;49.28;;;2.10;99.90;;;0.64;100.00;101916.47;5007902;28;20680;-79
2022/03/03 00:22:28;;;;;;;203.23;48.17;;;2.10;99.90;;;0.69;100.00;101909.59;4931330;28;20021;-78
2022/03/03 00:24:54;;;;;;;187.30;46.35;;;2.10;99.90;;;0.71;100.00;101910.50;4952063;28;20026;-78
2022/03/03 00:27:20;;;;;;;228.90;48.55;;;2.20;99.90;;;0.77;100.00;101908.00;4927677;28;20057;-77
2022/03/03 00:29:46;;;;;;;204.13;47.45;;;2.20;99.90;;;0.77;100.00;101908.00;4951544;28;20044;-78
2022/03/03 00:32:12;;;;;;;358.30;50.17;;;2.20;99.90;;;0.72;100.00;101920.03;4959508;28;20021;-77
2022/03/03 00:34:45;;;;;;;236.52;48.00;;;2.20;99.90;;;0.65;100.00;101918.19;4963733;28;20049;-76
2022/03/03 00:37:11;;;;;;;226.25;48.88;;;2.20;99.90;;;0.72;100.00;101914.84;4973377;28;20028;-77
2022/03/03 00:39:37;;;;;;;186.60;45.67;;;2.20;99.90;;;0.76;100.00;101911.44;4960919;28;20029;-77
2022/03/03 00:42:04;;;;;;;250.88;51.10;;;2.30;99.90;;;0.80;100.00;101908.91;4996077;28;20040;-79
2022/03/03 00:44:35;;;;;;;315.42;51.78;;;2.30;99.90;;;0.82;100.00;101914.09;4985429;28;20045;-78
2022/03/03 00:47:00;;;;;;;255.77;50.45;;;2.30;99.90;;;0.75;100.00;101912.28;4985466;28;20034;-75
2022/03/03 00:49:26;;;;;;;205.27;48.30;;;2.30;99.90;;;0.79;100.00;101899.38;5008222;28;20030;-76
2022/03/03 00:51:52;;;;;;;183.63;47.20;;;2.30;99.90;;;0.86;100.00;101900.31;5003619;28;20481;-75
2022/03/03 00:54:18;;;;;;;226.52;50.83;;;2.30;99.90;;;0.81;100.00;101904.59;5009773;28;20033;-75
2022/03/03 00:56:44;;;;;;;241.27;51.95;;;2.30;99.90;;;0.81;100.00;101889.03;4999939;28;20052;-77
2022/03/03 00:59:12;;;;;;;251.52;48.05;;;2.30;99.90;;;0.60;100.00;101916.44;4986631;28;20029;-77
2022/03/03 01:01:38;;;;;;;189.50;50.33;;;2.20;99.90;;;0.41;100.00;101924.78;4949874;28;20033;-78
2022/03/03 01:04:07;;;;;;;194.73;53.28;;;2.10;99.90;;;0.44;100.00;101908.44;4964238;28;20057;-77
2022/03/03 01:06:33;;;;;;;206.65;54.22;;;2.10;99.90;;;0.53;100.00;101914.59;4963021;28;20055;-77
2022/03/03 01:08:59;;;;;;;194.63;53.97;;;2.10;99.90;;;0.55;100.00;101905.13;5001761;28;20124;-76
2022/03/03 01:11:28;;;;;;;198.48;53.03;;;2.20;99.90;;;0.61;100.00;101896.56;5003626;28;20128;-77
2022/03/03 01:13:54;;;;;;;196.13;52.03;;;2.20;99.90;;;0.60;100.00;101890.53;4961950;28;20696;-77
2022/03/03 01:16:20;;;;;;;174.75;51.15;;;2.20;99.90;;;0.58;100.00;101893.91;4997450;28;20032;-77
2022/03/03 01:18:46;;;;;;;160.80;46.75;;;2.20;99.90;;;0.59;100.00;101898.25;5016720;28;20496;-77
2022/03/03 01:21:12;;;;;;;146.48;47.38;;;2.20;99.90;;;0.52;100.00;101897.31;5032404;28;20033;-77
2022/03/03 01:23:37;;;;;;;164.00;52.17;;;2.10;99.90;;;0.56;100.00;101891.31;4963340;28;20151;-78
2022/03/03 01:26:04;;;;;;;168.98;50.92;;;2.20;99.90;;;0.62;100.00;101895.69;4967620;28;20682;-77
2022/03/03 01:28:35;;;;;;;176.82;49.95;;;2.20;99.90;;;0.64;100.00;101886.22;4962833;28;20056;-78
2022/03/03 01:31:01;;;;;;;141.82;46.47;;;2.20;99.90;;;0.66;100.00;101886.25;4964562;28;20486;-77
2022/03/03 01:33:27;;;;;;;132.18;44.38;;;2.20;99.90;;;0.64;100.00;101888.81;4996485;28;20483;-76
2022/03/03 01:35:53;;;;;;;128.80;43.60;;;2.20;99.90;;;0.66;100.00;101883.66;5011366;28;20025;-76
2022/03/03 01:38:19;;;;;;;123.80;42.72;;;2.20;99.90;;;0.66;100.00;101884.53;5018764;28;20037;-76
2022/03/03 01:40:45;;;;;;;126.95;47.33;;;2.30;99.90;;;0.69;100.00;101884.59;5011440;28;20033;-77
2022/03/03 01:43:11;;;;;;;145.98;47.15;;;2.30;99.90;;;0.71;100.00;101906.19;5004768;28;20045;-76
2022/03/03 01:45:37;;;;;;;90.07;33.88;;;2.30;99.90;;;0.70;100.00;101895.81;5011567;28;20524;-76
2022/03/03 01:48:06;;;;;;;121.90;41.72;;;2.30;99.90;;;0.68;100.00;101876.78;5002807;28;20026;-77
2022/03/03 01:50:32;;;;;;;119.90;42.45;;;2.30;99.90;;;0.65;100.00;101892.28;4994595;28;20041;-77
2022/03/03 01:52:58;;;;;;;125.65;42.03;;;2.30;99.90;;;0.66;100.00;101881.94;4995387;28;20034;-76
2022/03/03 01:55:25;;;;;;;151.18;45.58;;;2.30;99.90;;;0.71;100.00;101874.22;5010149;28;20026;-76
2022/03/03 01:57:54;;;;;;;111.07;37.88;;;2.30;99.90;;;0.67;100.00;101891.47;4996310;28;20052;-75
2022/03/03 02:00:20;;;;;;;89.18;28.23;;;2.30;99.90;;;0.59;100.00;101893.94;4985465;28;20036;-76
2022/03/03 02:02:47;;;;;;;77.70;23.85;;;2.20;99.90;;;0.56;100.00;101882.66;5001350;28;20033;-77
2022/03/03 02:05:14;;;;;;;62.42;19.38;;;2.20;99.90;;;0.47;100.00;101896.38;5012425;28;20048;-76
2022/03/03 02:07:40;;;;;;;66.22;20.65;;;2.20;99.90;;;0.47;100.00;101880.81;4993425;28;20025;-77
2022/03/03 02:10:06;;;;;;;82.78;21.23;;;2.10;99.90;;;0.43;100.00;101871.25;4988074;28;20037;-77
2022/03/03 02:12:33;;;;;;;79.95;22.35;;;2.10;99.90;;;0.46;100.00;101876.50;5001944;28;20025;-76
2022/03/03 02:14:59;;;;;;;101.32;25.52;;;2.10;99.90;;;0.42;100.00;101881.63;4989390;28;20136;-76
2022/03/03 02:17:26;;;;;;;75.35;23.85;;;;;;;0.28;100.00;101881.41;5014505;28;20060;-77
2022/03/03 02:19:52;;;;;;;79.93;25.15;;;2.10;99.90;;;0.32;100.00;101872.84;5019696;28;20052;-77
2022/03/03 02:22:17;;;;;;;85.43;23.88;;;2.00;99.90;;;0.29;100.00;101865.03;4982886;28;20030;-77
2022/03/03 02:24:43;;;;;;;56.05;19.90;;;2.00;99.90;;;0.17;100.00;101851.06;5011908;28;20029;-77
2022/03/03 02:27:12;;;;;;;66.85;20.10;;;2.00;99.90;;;0.20;100.00;101848.50;4993115;28;20099;-77
2022/03/03 02:29:38;;;;;;;59.75;20.17;;;1.90;99.90;;;0.18;100.00;101849.34;4960978;28;20044;-76
2022/03/03 02:32:06;;;;;;;61.70;20.55;;;1.90;99.90;;;0.10;100.00;101850.94;4963946;28;20024;-76
2022/03/03 02:34:34;;;;;;;65.93;20.17;;;1.80;99.90;;;0.03;100.00;101855.16;4991623;28;20133;-77
2022/03/03 02:37:00;;;;;;;57.85;18.83;;;1.80;99.90;;;0.07;100.00;101853.50;5002657;28;20128;-77
2022/03/03 02:39:26;;;;;;;71.75;20.52;;;1.80;99.90;;;0.04;100.00;101858.63;5010246;28;20025;-76
2022/03/03 02:41:56;;;;;;;67.28;22.52;;;1.80;99.90;;;0.13;100.00;101844.09;5011532;28;20032;-76
2022/03/03 02:44:21;;;;;;;80.00;24.48;;;1.90;99.90;;;0.29;100.00;101842.56;5000215;28;20054;-77
2022/03/03 02:46:47;;;;;;;78.10;22.67;;;1.90;99.90;;;0.35;100.00;101828.84;5005755;28;20044;-77
2022/03/03 02:49:13;;;;;;;78.03;22.92;;;1.90;99.90;;;0.28;100.00;101830.50;5000596;28;20029;-77
2022/03/03 02:51:39;;;;;;;69.40;21.40;;;1.90;99.90;;;0.32;100.00;101832.25;4983366;28;20037;-77
2022/03/03 02:54:07;;;;;;;78.68;23.23;;;2.00;99.90;;;0.34;100.00;101822.78;4977213;28;20049;-77
2022/03/03 02:57:53;;;;;;;88.05;25.52;;;2.00;99.90;;;0.43;100.00;101823.75;4982468;28;20030;-77
2022/03/03 02:59:19;;;;;;;94.90;26.63;;;2.10;99.90;;;0.51;100.00;101817.81;5001614;28;20057;-76
2022/03/03 03:01:45;;;;;;;82.80;26.15;;;2.10;99.90;;;0.46;100.00;101836.75;4979526;28;20461;-77
2022/03/03 03:04:11;;;;;;;88.28;26.42;;;2.10;99.90;;;0.53;100.00;101831.66;5022058;28;20125;-77
2022/03/03 03:06:39;;;;;;;84.05;25.40;;;2.10;99.90;;;0.53;100.00;101830.78;4976515;28;20735;-77
2022/03/03 03:09:05;;;;;;;102.43;27.40;;;2.10;99.90;;;0.54;100.00;101816.97;4975925;28;20044;-78
2022/03/03 03:14:24;;;;;;;97.32;27.80;;;2.20;99.90;;;0.70;100.00;101815.44;5002064;28;20100;-76
2022/03/03 03:16:52;;;;;;;104.57;27.85;;;2.30;99.90;;;0.74;100.00;101818.09;4986920;28;20029;-76
2022/03/03 03:19:18;;;;;;;108.85;29.20;;;2.30;99.90;;;0.80;100.00;101820.75;5006968;28;20037;-77
2022/03/03 03:21:44;;;;;;;107.28;28.92;;;2.30;99.90;;;0.78;100.00;101821.59;5009229;28;20029;-78
2022/03/03 03:24:10;;;;;;;114.90;29.67;;;2.30;99.90;;;0.86;100.00;101819.94;4990728;28;20091;-78
2022/03/03 03:26:36;;;;;;;111.57;30.35;;;2.40;99.90;;;0.90;100.00;101800.97;5000104;28;20040;-77
2022/03/03 03:29:11;;;;;;;98.50;27.58;;;2.40;99.90;;;0.81;100.00;101804.34;4975896;28;20033;-77
2022/03/03 03:31:37;;;;;;;81.10;25.87;;;2.40;99.90;;;0.84;100.00;101790.53;4970640;28;20529;-78
2022/03/03 03:34:03;;;;;;;93.47;28.30;;;2.40;99.90;;;0.90;100.00;101800.97;5026068;28;20308;-78
2022/03/03 03:36:29;;;;;;;95.18;28.67;;;2.40;99.90;;;0.95;100.00;101798.41;4994392;28;22947;-77
2022/03/03 03:38:55;;;;;;;99.05;28.83;;;2.50;99.90;;;0.98;100.00;101794.13;5000429;28;20604;-77
2022/03/03 03:41:23;;;;;;;96.00;28.63;;;2.50;99.90;;;1.06;100.00;101794.22;4971317;28;20044;-77
2022/03/03 03:43:49;;;;;;;98.25;27.95;;;2.50;99.90;;;1.08;100.00;101784.75;4988867;28;20103;-77
2022/03/03 03:46:15;;;;;;;100.60;29.65;;;2.60;99.90;;;1.10;100.00;101782.13;5005931;28;21132;-78
2022/03/03 03:48:41;;;;;;;96.75;29.63;;;2.60;99.90;;;1.13;100.00;101792.56;4968156;28;20040;-76
2022/03/03 03:51:07;;;;;;;89.00;27.73;;;2.60;99.90;;;1.11;100.00;101795.13;4976139;28;20029;-76
2022/03/03 03:53:33;;;;;;;90.57;27.98;;;2.60;99.90;;;1.14;100.00;101786.50;4972898;28;20041;-78
2022/03/03 03:56:02;;;;;;;80.45;27.05;;;2.60;99.90;;;1.13;100.00;101784.78;4987136;28;20161;-77
2022/03/03 03:58:28;;;;;;;90.40;28.50;;;2.60;99.90;;;1.12;100.00;101780.44;4953702;28;20112;-78
2022/03/03 04:00:54;;;;;;;77.50;25.75;;;2.60;99.90;;;1.05;100.00;101769.13;4982447;28;20077;-78
2022/03/03 04:03:20;;;;;;;73.95;27.83;;;2.60;99.90;;;1.04;100.00;101775.19;4981722;28;20124;-76
2022/03/03 04:05:46;;;;;;;82.70;28.70;;;2.60;99.90;;;1.08;100.00;101783.84;4998018;28;20112;-77
2022/03/03 04:08:12;;;;;;;78.15;27.48;;;2.60;99.90;;;1.10;100.00;101779.53;5007328;28;20409;-77
2022/03/03 04:10:43;;;;;;;87.72;28.65;;;2.60;99.90;;;1.03;100.00;101773.44;4982756;28;20045;-76
2022/03/03 04:13:09;;;;;;;91.82;29.25;;;2.50;99.90;;;1.01;100.00;101775.13;4965604;28;20903;-76
2022/03/03 04:15:35;;;;;;;50.50;21.15;;;2.50;99.90;;;0.89;100.00;101782.81;4984231;28;20835;-77
2022/03/03 04:18:01;;;;;;;54.88;22.17;;;2.40;99.90;;;0.77;100.00;101784.41;5023618;28;20039;-77
2022/03/03 04:20:27;;;;;;;56.05;22.52;;;2.30;99.90;;;0.68;100.00;101799.00;4993182;28;20116;-77
2022/03/03 04:22:54;;;;;;;64.93;22.77;;;2.30;99.90;;;0.65;100.00;101804.13;5001288;28;20029;-77
2022/03/03 04:25:20;;;;;;;45.40;19.45;;;2.30;99.90;;;0.57;100.00;101802.34;4989344;28;20112;-77
2022/03/03 04:27:46;;;;;;;52.47;19.60;;;2.20;99.90;;;0.52;100.00;101792.75;4966232;28;20738;-78
2022/03/03 04:30:13;;;;;;;55.78;22.38;;;2.20;99.90;;;0.58;100.00;101783.34;4990867;28;20115;-78
2022/03/03 04:32:40;;;;;;;61.17;21.17;;;2.20;99.90;;;0.55;100.00;101780.72;4986061;28;20454;-77
2022/03/03 04:35:08;;;;;;;55.80;23.30;;;2.20;99.90;;;0.60;100.00;101775.56;4971210;28;20017;-77
2022/03/03 04:37:37;;;;;;;46.17;20.35;;;2.20;99.90;;;0.64;100.00;101772.16;4988340;28;20520;-77
2022/03/03 04:40:06;;;;;;;60.92;21.48;;;2.20;99.90;;;0.63;100.00;101770.44;4963752;28;20025;-77
2022/03/03 04:42:32;;;;;;;52.45;21.42;;;2.20;99.90;;;0.66;100.00;101772.19;4988508;28;20037;-77
2022/03/03 04:44:58;;;;;;;55.17;21.55;;;2.20;99.90;;;0.65;100.00;101773.94;5007597;28;20528;-77
2022/03/03 04:47:24;;;;;;;63.08;24.05;;;2.20;99.90;;;0.66;100.00;101774.78;4979560;28;20108;-77
2022/03/03 04:49:50;;;;;;;68.28;22.20;;;2.20;99.90;;;0.67;100.00;101766.13;5041566;23;20042;-77
2022/03/03 04:52:19;;;;;;;51.00;20.67;;;2.20;99.90;;;0.66;100.00;101759.22;4929479;28;20037;-77
2022/03/03 04:54:45;;;;;;;44.75;19.27;;;2.20;99.90;;;0.56;100.00;101764.31;4963123;28;20387;-77
2022/03/03 04:57:11;;;;;;;55.50;22.27;;;2.20;99.90;;;0.54;100.00;101760.84;4944095;28;20128;-77
2022/03/03 04:59:37;;;;;;;48.65;20.50;;;2.20;99.90;;;0.53;100.00;101763.41;4936970;28;20035;-76
2022/03/03 05:02:03;;;;;;;54.80;22.67;;;2.00;99.90;;;0.55;100.00;101765.16;4942831;28;20112;-77
2022/03/03 05:04:29;;;;;;;54.35;22.58;;;2.20;99.90;;;0.55;100.00;101761.72;4907075;28;20148;-78
2022/03/03 05:07:00;;;;;;;46.03;20.25;;;2.10;99.90;;;0.46;100.00;101771.97;4949346;28;20057;-77
2022/03/03 05:09:26;;;;;;;60.78;22.52;;;2.10;99.90;;;0.41;100.00;101758.94;4927333;28;20468;-77
2022/03/03 05:11:52;;;;;;;51.38;22.08;;;2.00;99.90;;;0.37;100.00;101757.19;4939867;28;20199;-77
2022/03/03 05:14:18;;;;;;;63.47;23.00;;;2.00;99.90;;;0.39;100.00;101768.44;4934568;28;20073;-77
2022/03/03 05:16:44;;;;;;;57.70;21.92;;;2.00;99.90;;;0.36;100.00;101770.97;4914992;28;21010;-78
2022/03/03 05:19:15;;;;;;;56.70;22.10;;;2.00;99.90;;;0.28;100.00;101767.41;4954381;28;20109;-77
2022/03/03 05:21:41;;;;;;;58.88;23.00;;;2.00;99.90;;;0.27;100.00;101770.88;4922092;28;20062;-77
2022/03/03 05:24:07;;;;;;;63.22;22.27;;;1.90;99.90;;;0.22;100.00;101763.06;4948744;28;20038;-77
2022/03/03 05:26:33;;;;;;;38.25;16.48;;;1.90;99.90;;;0.11;100.00;101760.31;4959658;28;20571;-77
2022/03/03 05:28:59;;;;;;;47.03;18.30;;;1.80;99.90;;;0.06;100.00;101769.72;4926375;28;20510;-78
2022/03/03 05:31:25;;;;;;;47.53;20.98;;;1.80;99.90;;;0.09;100.00;101771.53;4955785;28;20037;-78
2022/03/03 05:33:56;;;;;;;51.55;20.08;;;1.70;99.90;;;0.05;100.00;101765.41;4923494;28;20050;-77
2022/03/03 05:36:25;;;;;;;54.30;20.88;;;1.70;99.90;;;0.04;100.00;101761.06;4910038;28;20763;-77
2022/03/03 05:38:57;;;;;;;66.35;22.35;;;1.70;99.90;;;0.11;100.00;101760.31;4940899;28;20078;-77
2022/03/03 05:41:24;;;;;;;59.53;19.33;;;1.70;99.90;;;0.08;100.00;101762.00;4922850;28;20038;-78
2022/03/03 05:43:50;;;;;;;59.85;18.83;;;1.70;99.90;;;0.07;100.00;101765.44;4905526;28;20038;-77
2022/03/03 05:46:17;;;;;;;61.50;20.70;;;1.70;99.90;;;0.05;100.00;101764.56;4944904;28;20454;-77
2022/03/03 05:48:43;;;;;;;58.53;19.80;;;1.70;99.90;;;-0.03;100.00;101767.03;4961908;28;20470;-77
2022/03/03 05:51:10;;;;;;;60.20;19.83;;;1.60;99.90;;;-0.03;100.00;101769.63;4927301;28;20556;-77
2022/03/03 05:53:38;;;;;;;56.80;21.27;;;1.60;99.90;;;-0.02;100.00;101779.16;4905484;28;20058;-77
2022/03/03 05:56:10;;;;;;;67.32;23.48;;;1.60;99.90;;;-0.02;100.00;101768.78;4929470;28;20046;-77
2022/03/03 05:58:44;;;;;;;62.38;21.95;;;1.70;99.90;;;0.03;100.00;101768.84;4953418;28;20100;-77
2022/03/03 06:01:13;;;;;;;66.35;24.45;;;1.70;99.90;;;0.03;100.00;101772.28;4923264;28;20042;-77
2022/03/03 06:03:40;;;;;;;79.07;26.13;;;1.70;99.90;;;0.08;100.00;101770.63;4928219;28;20023;-77
2022/03/03 06:06:17;;;;;;;79.78;25.27;;;1.70;99.90;;;0.16;100.00;101766.41;4951029;28;20077;-78
2022/03/03 06:09:15;;;;;;;58.67;23.77;;;1.70;99.90;;;0.15;100.00;101758.63;4970029;28;20097;-77
2022/03/03 06:12:10;;;;;;;62.53;20.42;;;1.70;99.90;;;-0.03;100.00;101777.38;4946839;28;20062;-77
2022/03/03 06:14:45;;;;;;;68.97;22.30;;;1.70;99.90;;;0.05;100.00;101767.16;4959554;28;20388;-77
2022/03/03 06:17:13;;;;;;;69.53;23.42;;;1.70;99.90;;;0.06;100.00;101759.38;4939246;28;21575;-78
2022/03/03 06:19:41;;;;;;;68.95;20.65;;;1.70;99.90;;;-0.03;100.00;101759.25;4951402;28;20036;-78
2022/03/03 06:22:14;;;;;;;94.20;25.73;;;1.60;99.90;;;-0.04;100.00;101753.22;4922122;28;20042;-77
2022/03/03 06:24:40;;;;;;;179.13;22.48;;;1.60;99.90;;;-0.11;100.00;101758.28;4940164;28;20038;-78
2022/03/03 06:27:08;;;;;;;190.18;26.05;;;1.60;99.90;;;-0.06;100.00;101764.41;4925103;28;20038;-78
2022/03/03 06:29:36;;;;;;;162.85;26.20;;;1.60;99.90;;;-0.03;100.00;101764.44;4932423;28;20033;-77
2022/03/03 06:32:05;;;;;;;184.38;26.83;;;1.60;99.90;;;0.00;100.00;101772.25;4939799;28;20549;-77
2022/03/03 06:34:31;;;;;;;235.18;23.10;;;1.60;99.90;;;-0.10;100.00;101765.22;4939307;28;20134;-77
2022/03/03 06:36:58;;;;;;;242.05;25.15;;;1.60;99.90;;;-0.07;100.00;101775.59;4941517;28;20101;-78
2022/03/03 06:39:24;;;;;;;222.90;26.15;;;1.60;99.90;;;-0.07;100.00;101778.19;4945304;28;20029;-77
2022/03/03 06:41:51;;;;;;;195.23;24.67;;;1.60;99.90;;;-0.06;100.00;101785.13;4956214;28;20030;-78
2022/03/03 06:44:21;;;;;;;184.55;21.48;;;1.60;99.90;;;-0.09;100.00;101791.09;4898570;28;20045;-78
2022/03/03 06:46:48;;;;;;;200.95;23.75;;;1.50;99.90;;;-0.13;100.00;101796.22;4917278;28;20033;-77
2022/03/03 06:49:14;;;;;;;182.27;26.63;;;1.50;99.90;;;-0.10;100.00;101796.28;4952585;28;20041;-77
2022/03/03 06:51:50;;;;;;;97.80;22.00;;;1.50;99.90;;;-0.14;100.00;101797.09;4945868;28;20044;-77
2022/03/03 06:54:21;;;;;;;132.43;23.00;;;1.50;99.90;;;-0.18;100.00;101803.06;4934739;28;20112;-76
2022/03/03 06:56:57;;;;;;;91.03;16.67;;;1.40;99.90;;;-0.42;100.00;101802.69;4902145;28;20033;-77
2022/03/03 06:59:32;;;;;;;125.78;21.30;;;1.40;99.90;;;-0.33;100.00;101821.81;4918642;28;20039;-78
2022/03/03 07:02:00;;;;;;;107.73;19.67;;;1.40;99.90;;;-0.41;100.00;101821.72;4932657;28;20034;-77
2022/03/03 07:04:28;;;;;;;126.90;21.60;;;1.40;99.90;;;-0.43;100.00;101833.75;4910753;28;20418;-78
2022/03/03 07:06:54;;;;;;;92.68;19.90;;;1.40;99.90;;;-0.44;100.00;101842.34;4918401;28;20477;-78
2022/03/03 07:09:20;;;;;;;174.80;27.30;;;1.40;99.90;;;-0.28;100.00;101835.69;4923657;28;20415;-77
2022/03/03 07:11:52;;;;;;;147.18;26.17;;;1.40;99.90;;;-0.28;100.00;101838.28;4904141;28;20096;-78
2022/03/03 07:14:18;;;;;;;113.40;21.02;;;1.40;99.90;;;-0.41;100.00;101837.22;4930751;28;20125;-78
2022/03/03 07:17:01;;;;;;;176.43;22.25;;;1.40;99.90;;;-0.23;100.00;101834.06;4912540;28;20035;-78
2022/03/03 07:19:26;;;;;;;122.97;15.88;;;1.50;99.90;;;-0.23;100.00;101831.47;4930633;28;20041;-78
2022/03/03 07:22:22;;;;;;;237.93;21.35;;;1.50;99.90;;;-0.13;100.00;101837.63;4941647;28;20062;-77
2022/03/03 07:25:14;;;;;;;221.60;20.47;;;1.50;99.90;;;-0.03;100.00;101840.38;4921930;28;20499;-77
2022/03/03 07:27:44;;;;;;;240.88;22.13;;;1.60;99.90;;;0.04;100.00;101836.16;4932881;28;21559;-78
2022/03/03 07:30:16;;;;;;;249.40;22.35;;;1.60;99.90;;;0.05;100.00;101832.75;4970129;28;20109;-78
2022/03/03 07:32:54;;;;;;;153.00;18.38;;;1.70;99.90;;;0.07;100.00;101840.56;4870724;28;20070;-79
2022/03/03 07:35:27;;;;;;;163.38;19.35;;;1.70;99.90;;;0.08;100.00;101835.38;4855304;28;20095;-79
2022/03/03 07:38:24;;;;;;;149.00;18.15;;;1.70;99.90;;;0.06;100.00;101842.25;4927729;28;20027;-78
2022/03/03 07:40:59;;;;;;;147.00;18.52;;;1.70;99.90;;;0.13;100.00;101841.50;4934864;28;20034;-78
2022/03/03 07:43:25;;;;;;;173.63;19.05;;;1.70;99.90;;;0.14;100.00;101851.00;4934307;28;20026;-78
2022/03/03 07:45:51;;;;;;;134.63;19.17;;;1.80;99.90;;;0.14;100.00;101858.78;4952336;28;20507;-78
2022/03/03 07:48:24;;;;;;;101.03;13.73;;;1.80;99.90;;;0.16;100.00;101845.84;4922995;28;20547;-79
2022/03/03 07:50:50;;;;;;;102.93;17.27;;;1.80;99.90;;;0.26;100.00;101844.25;4910126;28;20113;-78
2022/03/03 07:53:17;;;;;;;137.38;16.73;;;1.80;99.90;;;0.30;100.00;101856.41;4900826;28;20049;-78
2022/03/03 07:55:53;;;;;;;139.30;18.05;;;1.90;99.90;;;0.35;100.00;101841.81;4933831;28;20041;-79
2022/03/03 07:58:26;;;;;;;125.43;18.90;;;1.90;99.90;;;0.35;100.00;101839.22;4906005;28;21499;-80
2022/03/03 08:00:59;;;;;;;108.15;14.32;;;2.00;99.90;;;0.39;100.00;101838.41;4912344;28;20030;-78
2022/03/03 08:03:26;;;;;;;146.38;20.58;;;2.00;99.90;;;0.48;100.00;101842.84;4923520;28;20037;-79
2022/03/03 08:06:03;;;;;;;165.73;18.38;;;2.00;99.90;;;0.54;100.00;101843.78;4923186;28;20053;-79
2022/03/03 08:08:31;;;;;;;41.40;11.55;;;2.40;99.90;;;0.58;100.00;101840.38;4938976;28;20103;-79
2022/03/03 08:11:04;;;;;;;80.45;16.10;;;2.10;99.90;;;0.35;100.00;101845.25;4901214;28;20045;-79
2022/03/03 08:13:32;;;;;;;143.88;18.13;;;2.00;99.90;;;0.38;100.00;101850.47;4921836;28;20123;-78
2022/03/03 08:15:59;;;;;;;116.65;19.45;;;2.10;99.90;;;0.52;100.00;101845.47;4987976;28;20677;-80
2022/03/03 08:18:38;;;;;;;89.13;13.50;;;2.00;99.90;;;0.40;100.00;101855.69;4936157;28;20085;-80
2022/03/03 08:21:15;;;;;;;108.22;18.52;;;2.00;99.90;;;0.31;100.00;101847.78;4914562;28;20030;-79
2022/03/03 08:23:43;;;;;;;105.97;17.52;;;2.00;99.90;;;0.36;100.00;101848.72;4921304;28;20096;-79
2022/03/03 08:26:12;;;;;;;125.63;22.40;;;2.10;99.90;;;0.60;100.00;101851.63;4893086;28;20030;-80
2022/03/03 08:28:41;;;;;;;149.18;24.67;;;2.20;99.90;;;0.79;100.00;101847.53;4851444;28;20042;-79
2022/03/03 08:31:08;;;;;;;71.07;19.30;;;2.30;99.90;;;0.87;100.00;101854.53;4896493;28;20098;-79
2022/03/03 08:34:12;;;;;;;60.88;18.20;;;2.30;99.90;;;0.70;100.00;101844.81;4906713;28;20050;-80
2022/03/03 08:36:46;;;;;;;81.70;20.27;;;2.40;99.90;;;0.85;100.00;101848.47;4932742;28;20022;-80
2022/03/03 08:39:26;;;;;;;117.85;21.98;;;2.40;99.90;;;0.97;100.00;101844.28;4912267;28;20502;-79
2022/03/03 08:42:00;;;;;;;116.25;21.15;;;2.50;99.90;;;1.01;100.00;101846.03;4876014;28;20499;-79
2022/03/03 08:44:39;;;;;;;68.45;17.25;;;2.50;99.90;;;1.07;100.00;101841.78;4898549;28;20133;-79
2022/03/03 08:47:06;;;;;;;68.07;19.30;;;2.60;99.90;;;1.03;100.00;101854.69;4895423;28;20098;-80
2022/03/03 08:49:47;;;;;;;41.15;13.63;;;2.50;99.90;;;0.96;100.00;101860.69;4904167;28;20627;-80
2022/03/03 08:52:13;;;;;;;43.60;14.00;;;2.50;99.90;;;0.87;100.00;101864.91;4868472;28;20059;-80
2022/03/03 08:54:39;;;;;;;66.15;17.73;;;2.50;99.90;;;0.89;100.00;101868.41;4897959;28;20583;-79
2022/03/03 08:57:12;;;;;;;61.65;17.25;;;2.60;99.90;;;1.09;100.00;101863.41;4892922;28;20088;-80
2022/03/03 08:59:38;;;;;;;59.10;18.48;;;2.70;99.90;;;1.22;100.00;101855.75;4938902;28;20035;-80
2022/03/03 09:02:04;;;;;;;59.20;17.88;;;2.70;99.90;;;1.37;100.00;101846.41;4902671;28;20083;-80
2022/03/03 09:04:30;;;;;;;51.55;17.40;;;2.80;99.90;;;1.40;100.00;101862.00;4903776;28;20041;-80
2022/03/03 09:06:57;;;;;;;53.50;17.67;;;2.90;99.90;;;1.44;100.00;101861.16;4904146;28;20513;-80
2022/03/03 09:09:29;;;;;;;61.65;18.55;;;2.90;99.90;;;1.49;100.00;101854.31;4928813;28;20445;-81
2022/03/03 09:11:55;;;;;;;56.00;17.65;;;3.00;99.90;;;1.58;100.00;101853.53;4913610;28;20022;-81
2022/03/03 09:14:21;;;;;;;69.35;18.73;;;3.00;99.90;;;1.65;100.00;101850.09;4901243;28;20100;-81
2022/03/03 09:16:50;;;;;;;62.30;16.65;;;3.10;99.90;;;1.66;100.00;101849.22;4881497;28;20465;-81
2022/03/03 09:19:24;;;;;;;52.60;14.98;;;3.10;99.90;;;1.60;100.00;101841.41;4864654;28;20029;-82
2022/03/03 09:21:53;;;;;;;63.33;17.73;;;3.20;99.90;;;1.49;100.00;101851.72;4942736;28;20200;-82
2022/03/03 09:24:30;;;;;;;70.30;17.50;;;3.10;99.90;;;1.65;100.00;101839.72;4913990;28;20034;-82
2022/03/03 09:26:57;;;;;;;57.75;16.30;;;3.10;99.90;;;1.67;100.00;101843.19;4912390;28;20048;-82
2022/03/03 09:29:37;;;;;;;49.13;15.65;;;3.20;99.90;;;1.76;100.00;101848.47;4872926;28;20040;-82
2022/03/03 09:32:10;;;;;;;59.22;17.88;;;3.20;99.90;;;1.73;100.00;101842.38;4923942;28;20260;-82
2022/03/03 09:34:36;;;;;;;56.92;17.75;;;3.20;99.90;;;1.61;100.00;101850.94;4883024;28;20464;-81
2022/03/03 09:37:11;;;;;;;55.47;16.42;;;3.20;99.90;;;1.71;100.00;101855.34;4902529;28;20030;-81
2022/03/03 09:39:54;;;;;;;55.00;16.05;;;3.20;99.90;;;1.75;100.00;101857.13;4929123;28;20040;-82
2022/03/03 09:42:34;;;;;;;48.22;15.00;;;3.20;99.90;;;1.76;100.00;101857.97;4926849;28;20156;-82
2022/03/03 09:45:03;;;;;;;60.80;17.48;;;3.20;99.90;;;1.70;100.00;101855.34;4903429;28;20034;-81
2022/03/03 09:47:38;;;;;;;49.22;14.02;;;3.20;99.90;;;1.69;100.00;101853.59;4916984;28;20035;-82
2022/03/03 09:50:07;;;;;;;56.30;16.20;;;3.20;99.90;;;1.73;100.00;101857.94;4880402;28;20078;-81
2022/03/03 09:52:42;;;;;;;52.42;18.02;;;3.20;99.90;;;1.73;100.00;101864.03;4899069;28;20026;-82
2022/03/03 09:55:08;;;;;;;57.22;20.00;;;3.20;99.90;;;1.66;100.00;101862.22;4862235;28;20045;-82
2022/03/03 09:57:35;;;;;;;61.38;18.08;;;3.30;99.90;;;1.68;100.00;101863.09;4884449;28;20513;-82
2022/03/03 10:00:10;;;;;;;51.10;17.02;;;3.30;99.90;;;1.81;100.00;101862.38;4881822;28;20499;-81
2022/03/03 10:03:08;;;;;;;49.78;19.15;;;3.20;99.90;;;1.74;100.00;101863.16;4880948;28;20875;-81
2022/03/03 10:05:53;;;;;;;46.95;16.02;;;3.30;99.90;;;1.84;100.00;101857.19;4897184;28;20562;-82
2022/03/03 10:08:30;;;;;;;37.38;14.40;;;3.40;99.90;;;1.96;100.00;101858.13;4975729;28;20121;-83
2022/03/03 10:11:08;;;;;;;45.88;16.08;;;3.50;99.90;;;1.97;100.00;101873.72;4918563;28;20018;-84
2022/03/03 10:13:51;;;;;;;24.15;11.05;;;3.50;99.90;;;1.98;100.00;101859.88;4918513;28;20041;-81